Three Bridges, Louisiana
Current Conditions -  °F | °C
As of 8:15 AM on Friday 31 Oct 2014 (Local Time) from KIER Reporting Station
Clear Clear  
Wind Chill: 53°   Ceiling: Unl
Heat Index: 53°   Visibility: 10mi
Dew Point: 49°   Wind: 7mph
Humidity: 86%   Direction: 310°NW
Pressure: 30.14"   Gusts: NA
Location:  31.6668°N, 92.8023°W
Report Text: KIER 311315Z AUTO 31006KT 10SM CLR 12/10 A3014 RMK AO2 T01180096
Loading
Personal Weather Stations






























Interactive Weather Map New forecast layout! Learn more

10-Day Weather Forecast

Advertisements
Track Severe Weather on mobile